sensor_id;sensor_type;location;lat;lon;timestamp;noise_LAeq;noise_LA_min;noise_LA_max;noise_LA01;noise_LA95
64996;Laerm;51545;51.568;6.998;2023-07-31T00:02:05;47.51;43.12;61.20;;
64996;Laerm;51545;51.568;6.998;2023-07-31T00:04:30;46.03;41.63;70.62;;
64996;Laerm;51545;51.568;6.998;2023-07-31T00:06:56;45.84;41.41;63.09;;
64996;Laerm;51545;51.568;6.998;2023-07-31T00:09:21;47.63;44.22;63.03;;
64996;Laerm;51545;51.568;6.998;2023-07-31T00:11:47;47.85;43.34;59.32;;
64996;Laerm;51545;51.568;6.998;2023-07-31T00:14:12;45.10;41.46;59.97;;
64996;Laerm;51545;51.568;6.998;2023-07-31T00:16:38;44.75;41.41;56.37;;
64996;Laerm;51545;51.568;6.998;2023-07-31T00:19:03;47.85;43.89;63.47;;
64996;Laerm;51545;51.568;6.998;2023-07-31T00:21:29;48.87;45.66;70.92;;
64996;Laerm;51545;51.568;6.998;2023-07-31T00:23:54;49.37;45.19;59.93;;
64996;Laerm;51545;51.568;6.998;2023-07-31T00:26:20;47.84;43.26;63.16;;
64996;Laerm;51545;51.568;6.998;2023-07-31T00:28:46;46.60;42.00;54.68;;
64996;Laerm;51545;51.568;6.998;2023-07-31T00:31:11;45.49;41.14;65.09;;
64996;Laerm;51545;51.568;6.998;2023-07-31T00:33:37;42.81;37.94;59.90;;
64996;Laerm;51545;51.568;6.998;2023-07-31T00:36:03;45.08;39.40;61.84;;
64996;Laerm;51545;51.568;6.998;2023-07-31T00:38:28;45.48;38.11;55.69;;
64996;Laerm;51545;51.568;6.998;2023-07-31T00:40:54;45.16;38.53;60.41;;
64996;Laerm;51545;51.568;6.998;2023-07-31T00:43:19;43.67;38.42;57.65;;
64996;Laerm;51545;51.568;6.998;2023-07-31T00:45:45;44.51;37.70;73.20;;
64996;Laerm;51545;51.568;6.998;2023-07-31T00:48:10;47.09;42.17;62.48;;
64996;Laerm;51545;51.568;6.998;2023-07-31T00:50:36;46.55;41.64;58.04;;
64996;Laerm;51545;51.568;6.998;2023-07-31T00:53:03;44.31;38.91;58.71;;
64996;Laerm;51545;51.568;6.998;2023-07-31T00:55:29;46.55;39.02;62.46;;
64996;Laerm;51545;51.568;6.998;2023-07-31T00:57:55;46.36;39.58;56.31;;
64996;Laerm;51545;51.568;6.998;2023-07-31T01:00:21;45.96;39.47;64.43;;
64996;Laerm;51545;51.568;6.998;2023-07-31T01:02:50;44.81;40.82;53.59;;
64996;Laerm;51545;51.568;6.998;2023-07-31T01:05:18;45.44;39.24;56.59;;
64996;Laerm;51545;51.568;6.998;2023-07-31T01:07:56;44.82;37.81;60.56;;
64996;Laerm;51545;51.568;6.998;2023-07-31T01:10:28;44.36;37.91;61.15;;
64996;Laerm;51545;51.568;6.998;2023-07-31T01:12:56;44.15;38.71;59.88;;
64996;Laerm;51545;51.568;6.998;2023-07-31T01:15:22;42.48;37.76;48.00;;
64996;Laerm;51545;51.568;6.998;2023-07-31T01:17:48;44.57;38.55;52.00;;
64996;Laerm;51545;51.568;6.998;2023-07-31T01:22:59;43.81;38.22;62.74;;
64996;Laerm;51545;51.568;6.998;2023-07-31T01:25:44;43.21;37.65;54.63;;
64996;Laerm;51545;51.568;6.998;2023-07-31T01:28:13;45.29;38.27;64.76;;
64996;Laerm;51545;51.568;6.998;2023-07-31T01:30:43;43.67;38.47;54.65;;
64996;Laerm;51545;51.568;6.998;2023-07-31T01:33:10;43.55;38.85;57.33;;
64996;Laerm;51545;51.568;6.998;2023-07-31T01:35:37;43.85;39.04;53.06;;
64996;Laerm;51545;51.568;6.998;2023-07-31T01:38:03;42.43;39.42;59.70;;
64996;Laerm;51545;51.568;6.998;2023-07-31T01:40:29;42.41;38.87;52.65;;
64996;Laerm;51545;51.568;6.998;2023-07-31T01:42:55;44.00;39.43;57.58;;
64996;Laerm;51545;51.568;6.998;2023-07-31T01:45:20;44.63;38.63;62.31;;
64996;Laerm;51545;51.568;6.998;2023-07-31T01:47:46;44.70;39.17;57.39;;
64996;Laerm;51545;51.568;6.998;2023-07-31T01:50:12;44.75;39.47;54.35;;
64996;Laerm;51545;51.568;6.998;2023-07-31T01:52:37;43.90;39.14;57.63;;
64996;Laerm;51545;51.568;6.998;2023-07-31T01:55:03;43.81;38.07;55.57;;
64996;Laerm;51545;51.568;6.998;2023-07-31T01:57:28;45.12;38.52;66.48;;
64996;Laerm;51545;51.568;6.998;2023-07-31T01:59:54;44.01;39.03;56.99;;
64996;Laerm;51545;51.568;6.998;2023-07-31T02:02:20;43.20;38.99;52.39;;
64996;Laerm;51545;51.568;6.998;2023-07-31T02:04:46;43.47;38.32;55.43;;
64996;Laerm;51545;51.568;6.998;2023-07-31T02:07:12;43.95;37.67;51.70;;
64996;Laerm;51545;51.568;6.998;2023-07-31T02:09:37;46.02;40.38;64.47;;
64996;Laerm;51545;51.568;6.998;2023-07-31T02:12:03;44.86;39.60;59.20;;
64996;Laerm;51545;51.568;6.998;2023-07-31T02:14:28;44.15;40.62;53.99;;
64996;Laerm;51545;51.568;6.998;2023-07-31T02:16:54;46.45;39.72;61.70;;
64996;Laerm;51545;51.568;6.998;2023-07-31T02:19:20;44.77;40.53;52.93;;
64996;Laerm;51545;51.568;6.998;2023-07-31T02:21:47;47.20;41.74;58.49;;
64996;Laerm;51545;51.568;6.998;2023-07-31T02:24:14;44.95;40.65;55.45;;
64996;Laerm;51545;51.568;6.998;2023-07-31T02:26:39;44.22;40.26;53.54;;
64996;Laerm;51545;51.568;6.998;2023-07-31T02:29:05;47.79;41.73;62.66;;
64996;Laerm;51545;51.568;6.998;2023-07-31T02:31:30;44.18;39.82;52.54;;
64996;Laerm;51545;51.568;6.998;2023-07-31T02:33:56;45.70;41.80;58.58;;
64996;Laerm;51545;51.568;6.998;2023-07-31T02:36:21;45.23;41.55;50.19;;
64996;Laerm;51545;51.568;6.998;2023-07-31T02:38:47;45.16;40.48;57.53;;
64996;Laerm;51545;51.568;6.998;2023-07-31T02:41:12;46.41;41.46;58.96;;
64996;Laerm;51545;51.568;6.998;2023-07-31T02:43:38;47.26;41.36;61.13;;
64996;Laerm;51545;51.568;6.998;2023-07-31T02:46:03;45.21;40.99;52.47;;
64996;Laerm;51545;51.568;6.998;2023-07-31T02:48:29;45.53;41.58;53.15;;
64996;Laerm;51545;51.568;6.998;2023-07-31T02:50:54;46.50;41.99;60.36;;
64996;Laerm;51545;51.568;6.998;2023-07-31T02:53:20;48.04;42.33;64.41;;
64996;Laerm;51545;51.568;6.998;2023-07-31T02:55:45;46.63;41.67;61.71;;
64996;Laerm;51545;51.568;6.998;2023-07-31T02:58:10;44.96;41.42;51.99;;
64996;Laerm;51545;51.568;6.998;2023-07-31T03:00:42;47.09;42.01;57.79;;
64996;Laerm;51545;51.568;6.998;2023-07-31T03:03:07;46.99;41.18;58.26;;
64996;Laerm;51545;51.568;6.998;2023-07-31T03:05:32;47.32;42.26;59.99;;
64996;Laerm;51545;51.568;6.998;2023-07-31T03:07:58;47.23;43.12;54.82;;
64996;Laerm;51545;51.568;6.998;2023-07-31T03:10:23;51.86;43.60;64.60;;
64996;Laerm;51545;51.568;6.998;2023-07-31T03:12:49;49.26;44.13;61.59;;
64996;Laerm;51545;51.568;6.998;2023-07-31T03:15:14;50.04;43.96;63.60;;
64996;Laerm;51545;51.568;6.998;2023-07-31T03:17:40;47.31;42.82;58.01;;
64996;Laerm;51545;51.568;6.998;2023-07-31T03:20:06;47.58;43.84;60.26;;
64996;Laerm;51545;51.568;6.998;2023-07-31T03:22:31;49.25;44.58;66.67;;
64996;Laerm;51545;51.568;6.998;2023-07-31T03:24:57;48.27;43.22;60.48;;
64996;Laerm;51545;51.568;6.998;2023-07-31T03:27:22;49.33;44.64;59.66;;
64996;Laerm;51545;51.568;6.998;2023-07-31T03:29:48;47.78;44.25;54.68;;
64996;Laerm;51545;51.568;6.998;2023-07-31T03:32:16;47.37;43.70;55.97;;
64996;Laerm;51545;51.568;6.998;2023-07-31T03:34:41;46.61;43.06;50.54;;
64996;Laerm;51545;51.568;6.998;2023-07-31T03:37:07;47.28;43.54;52.72;;
64996;Laerm;51545;51.568;6.998;2023-07-31T03:39:34;48.95;43.71;64.62;;
64996;Laerm;51545;51.568;6.998;2023-07-31T03:42:00;46.62;43.88;54.47;;
64996;Laerm;51545;51.568;6.998;2023-07-31T03:44:25;47.26;44.34;53.88;;
64996;Laerm;51545;51.568;6.998;2023-07-31T03:46:51;46.66;43.09;53.61;;
64996;Laerm;51545;51.568;6.998;2023-07-31T03:49:16;47.47;42.91;52.04;;
64996;Laerm;51545;51.568;6.998;2023-07-31T03:51:42;47.87;43.73;54.97;;
64996;Laerm;51545;51.568;6.998;2023-07-31T03:54:08;49.24;44.93;55.69;;
64996;Laerm;51545;51.568;6.998;2023-07-31T03:56:33;47.23;43.13;54.06;;
64996;Laerm;51545;51.568;6.998;2023-07-31T03:58:59;48.11;43.95;54.64;;
64996;Laerm;51545;51.568;6.998;2023-07-31T04:01:24;46.84;42.78;60.33;;
64996;Laerm;51545;51.568;6.998;2023-07-31T04:03:50;47.09;43.07;54.79;;
64996;Laerm;51545;51.568;6.998;2023-07-31T04:06:15;47.41;43.80;57.62;;
64996;Laerm;51545;51.568;6.998;2023-07-31T04:08:44;47.47;43.44;55.83;;
64996;Laerm;51545;51.568;6.998;2023-07-31T04:11:10;48.41;44.52;55.74;;
64996;Laerm;51545;51.568;6.998;2023-07-31T04:13:37;48.89;44.52;62.03;;
64996;Laerm;51545;51.568;6.998;2023-07-31T04:16:03;49.45;45.07;56.61;;
64996;Laerm;51545;51.568;6.998;2023-07-31T04:18:29;47.95;43.81;53.21;;
64996;Laerm;51545;51.568;6.998;2023-07-31T04:20:56;48.00;44.17;53.76;;
64996;Laerm;51545;51.568;6.998;2023-07-31T04:23:23;48.87;44.84;58.94;;
64996;Laerm;51545;51.568;6.998;2023-07-31T04:25:49;48.85;44.90;60.87;;
64996;Laerm;51545;51.568;6.998;2023-07-31T04:28:14;48.09;45.23;59.96;;
64996;Laerm;51545;51.568;6.998;2023-07-31T04:30:40;48.62;43.87;61.68;;
64996;Laerm;51545;51.568;6.998;2023-07-31T04:33:05;48.52;43.25;62.89;;
64996;Laerm;51545;51.568;6.998;2023-07-31T04:35:31;47.55;43.84;64.63;;
64996;Laerm;51545;51.568;6.998;2023-07-31T04:37:56;46.62;43.31;50.19;;
64996;Laerm;51545;51.568;6.998;2023-07-31T04:40:21;47.39;44.20;51.97;;
64996;Laerm;51545;51.568;6.998;2023-07-31T04:42:47;47.22;44.34;60.75;;
64996;Laerm;51545;51.568;6.998;2023-07-31T04:45:12;47.53;44.37;52.30;;
64996;Laerm;51545;51.568;6.998;2023-07-31T04:47:38;47.92;43.09;60.14;;
64996;Laerm;51545;51.568;6.998;2023-07-31T04:50:04;48.71;44.34;60.39;;
64996;Laerm;51545;51.568;6.998;2023-07-31T04:52:29;48.24;44.67;58.42;;
64996;Laerm;51545;51.568;6.998;2023-07-31T04:54:55;48.61;44.82;64.12;;
64996;Laerm;51545;51.568;6.998;2023-07-31T04:57:20;48.97;43.95;65.11;;
64996;Laerm;51545;51.568;6.998;2023-07-31T04:59:46;46.88;43.61;56.51;;
64996;Laerm;51545;51.568;6.998;2023-07-31T05:02:12;47.51;43.95;59.09;;
64996;Laerm;51545;51.568;6.998;2023-07-31T05:04:38;47.58;43.85;52.79;;
64996;Laerm;51545;51.568;6.998;2023-07-31T05:07:04;47.39;43.58;56.03;;
64996;Laerm;51545;51.568;6.998;2023-07-31T05:09:29;47.40;44.45;56.34;;
64996;Laerm;51545;51.568;6.998;2023-07-31T05:11:55;49.47;45.79;67.11;;
64996;Laerm;51545;51.568;6.998;2023-07-31T05:14:20;48.23;45.23;53.00;;
64996;Laerm;51545;51.568;6.998;2023-07-31T05:16:46;47.20;43.78;57.26;;
64996;Laerm;51545;51.568;6.998;2023-07-31T05:19:11;47.35;44.29;51.50;;
64996;Laerm;51545;51.568;6.998;2023-07-31T05:21:37;47.43;44.15;53.22;;
64996;Laerm;51545;51.568;6.998;2023-07-31T05:24:03;47.71;44.22;53.72;;
64996;Laerm;51545;51.568;6.998;2023-07-31T05:26:28;48.03;44.08;52.77;;
64996;Laerm;51545;51.568;6.998;2023-07-31T05:28:54;47.15;43.87;55.15;;
64996;Laerm;51545;51.568;6.998;2023-07-31T05:31:19;47.11;43.18;53.93;;
64996;Laerm;51545;51.568;6.998;2023-07-31T05:33:46;47.55;43.63;57.78;;
64996;Laerm;51545;51.568;6.998;2023-07-31T05:36:11;47.41;43.71;56.95;;
64996;Laerm;51545;51.568;6.998;2023-07-31T05:38:37;47.56;43.58;51.42;;
64996;Laerm;51545;51.568;6.998;2023-07-31T05:41:02;48.31;43.60;56.64;;
64996;Laerm;51545;51.568;6.998;2023-07-31T05:43:28;51.45;44.86;63.37;;
64996;Laerm;51545;51.568;6.998;2023-07-31T05:45:53;48.08;43.45;67.75;;
64996;Laerm;51545;51.568;6.998;2023-07-31T05:48:19;49.13;43.97;56.15;;
64996;Laerm;51545;51.568;6.998;2023-07-31T05:50:45;48.28;44.45;52.89;;
64996;Laerm;51545;51.568;6.998;2023-07-31T05:53:10;49.64;46.47;58.91;;
64996;Laerm;51545;51.568;6.998;2023-07-31T05:55:36;48.76;44.73;57.49;;
64996;Laerm;51545;51.568;6.998;2023-07-31T05:58:02;49.30;44.75;67.81;;
64996;Laerm;51545;51.568;6.998;2023-07-31T06:00:27;49.93;45.42;63.51;;
64996;Laerm;51545;51.568;6.998;2023-07-31T06:02:53;47.67;44.13;55.43;;
64996;Laerm;51545;51.568;6.998;2023-07-31T06:05:18;49.35;45.95;61.02;;
64996;Laerm;51545;51.568;6.998;2023-07-31T06:07:44;49.42;45.98;55.61;;
64996;Laerm;51545;51.568;6.998;2023-07-31T06:10:09;47.89;44.27;57.00;;
64996;Laerm;51545;51.568;6.998;2023-07-31T06:12:35;48.25;44.64;53.63;;
64996;Laerm;51545;51.568;6.998;2023-07-31T06:15:02;47.92;43.30;55.01;;
64996;Laerm;51545;51.568;6.998;2023-07-31T06:17:28;52.19;45.42;61.21;;
64996;Laerm;51545;51.568;6.998;2023-07-31T06:19:54;48.30;44.54;54.88;;
64996;Laerm;51545;51.568;6.998;2023-07-31T06:22:19;48.88;45.40;61.97;;
64996;Laerm;51545;51.568;6.998;2023-07-31T06:24:46;49.90;44.35;60.65;;
64996;Laerm;51545;51.568;6.998;2023-07-31T06:27:11;48.61;44.62;53.01;;
64996;Laerm;51545;51.568;6.998;2023-07-31T06:29:37;50.06;46.42;57.00;;
64996;Laerm;51545;51.568;6.998;2023-07-31T06:32:02;48.85;45.96;60.63;;
64996;Laerm;51545;51.568;6.998;2023-07-31T06:34:28;48.10;45.09;58.41;;
64996;Laerm;51545;51.568;6.998;2023-07-31T06:36:55;50.27;46.44;55.95;;
64996;Laerm;51545;51.568;6.998;2023-07-31T06:39:20;48.34;44.82;70.84;;
64996;Laerm;51545;51.568;6.998;2023-07-31T06:41:46;48.46;44.61;58.67;;
64996;Laerm;51545;51.568;6.998;2023-07-31T06:44:11;48.85;45.42;63.44;;
64996;Laerm;51545;51.568;6.998;2023-07-31T06:46:37;47.87;43.99;53.24;;
64996;Laerm;51545;51.568;6.998;2023-07-31T06:49:03;48.10;44.91;58.16;;
64996;Laerm;51545;51.568;6.998;2023-07-31T06:51:28;48.82;45.44;65.04;;
64996;Laerm;51545;51.568;6.998;2023-07-31T06:53:54;55.78;45.46;82.69;;
64996;Laerm;51545;51.568;6.998;2023-07-31T06:56:21;48.93;45.39;56.25;;
64996;Laerm;51545;51.568;6.998;2023-07-31T06:58:46;48.92;45.35;56.39;;
64996;Laerm;51545;51.568;6.998;2023-07-31T07:01:12;49.91;45.77;57.52;;
64996;Laerm;51545;51.568;6.998;2023-07-31T07:03:37;48.27;44.45;55.37;;
64996;Laerm;51545;51.568;6.998;2023-07-31T07:06:02;48.43;45.40;52.94;;
64996;Laerm;51545;51.568;6.998;2023-07-31T07:08:29;48.90;45.35;53.59;;
64996;Laerm;51545;51.568;6.998;2023-07-31T07:10:54;53.22;49.99;58.87;;
64996;Laerm;51545;51.568;6.998;2023-07-31T07:13:20;51.95;48.82;58.64;;
64996;Laerm;51545;51.568;6.998;2023-07-31T07:15:49;52.61;47.97;61.81;;
64996;Laerm;51545;51.568;6.998;2023-07-31T07:18:15;53.85;50.33;67.94;;
64996;Laerm;51545;51.568;6.998;2023-07-31T07:20:46;53.86;50.70;64.62;;
64996;Laerm;51545;51.568;6.998;2023-07-31T07:23:12;55.00;50.80;65.03;;
64996;Laerm;51545;51.568;6.998;2023-07-31T07:25:38;51.94;47.06;68.06;;
64996;Laerm;51545;51.568;6.998;2023-07-31T07:28:03;50.30;46.54;60.37;;
64996;Laerm;51545;51.568;6.998;2023-07-31T07:30:29;51.79;46.90;61.38;;
64996;Laerm;51545;51.568;6.998;2023-07-31T07:32:54;50.33;45.22;62.16;;
64996;Laerm;51545;51.568;6.998;2023-07-31T07:35:20;50.87;47.21;59.98;;
64996;Laerm;51545;51.568;6.998;2023-07-31T07:37:48;50.93;47.22;61.78;;
64996;Laerm;51545;51.568;6.998;2023-07-31T07:40:15;49.70;46.38;58.72;;
64996;Laerm;51545;51.568;6.998;2023-07-31T07:42:40;54.25;46.20;73.08;;
64996;Laerm;51545;51.568;6.998;2023-07-31T07:45:06;50.88;47.43;57.70;;
64996;Laerm;51545;51.568;6.998;2023-07-31T07:47:32;50.62;46.19;70.92;;
64996;Laerm;51545;51.568;6.998;2023-07-31T07:49:57;52.17;47.61;62.11;;
64996;Laerm;51545;51.568;6.998;2023-07-31T07:52:23;51.33;47.12;61.34;;
64996;Laerm;51545;51.568;6.998;2023-07-31T07:54:48;50.77;45.75;62.65;;
64996;Laerm;51545;51.568;6.998;2023-07-31T07:57:14;51.69;45.51;68.46;;
64996;Laerm;51545;51.568;6.998;2023-07-31T07:59:40;50.20;45.49;60.64;;
64996;Laerm;51545;51.568;6.998;2023-07-31T08:02:06;49.74;45.93;59.12;;
64996;Laerm;51545;51.568;6.998;2023-07-31T08:04:31;49.37;45.88;57.99;;
64996;Laerm;51545;51.568;6.998;2023-07-31T08:06:56;48.99;45.67;56.92;;
64996;Laerm;51545;51.568;6.998;2023-07-31T08:09:22;50.29;46.51;61.58;;
64996;Laerm;51545;51.568;6.998;2023-07-31T08:11:47;49.60;45.93;61.26;;
64996;Laerm;51545;51.568;6.998;2023-07-31T08:14:13;50.41;45.44;61.48;;
64996;Laerm;51545;51.568;6.998;2023-07-31T08:16:44;50.62;45.58;74.23;;
64996;Laerm;51545;51.568;6.998;2023-07-31T08:19:14;50.34;46.48;59.94;;
64996;Laerm;51545;51.568;6.998;2023-07-31T08:21:43;48.59;44.30;54.75;;
64996;Laerm;51545;51.568;6.998;2023-07-31T08:24:14;49.48;45.88;57.06;;
64996;Laerm;51545;51.568;6.998;2023-07-31T08:26:46;50.59;46.12;57.01;;
64996;Laerm;51545;51.568;6.998;2023-07-31T08:29:18;50.55;45.95;60.49;;
64996;Laerm;51545;51.568;6.998;2023-07-31T08:31:50;50.24;45.78;58.37;;
64996;Laerm;51545;51.568;6.998;2023-07-31T08:34:21;50.23;46.49;61.19;;
64996;Laerm;51545;51.568;6.998;2023-07-31T08:36:48;49.26;45.09;63.55;;
64996;Laerm;51545;51.568;6.998;2023-07-31T08:39:14;49.57;46.12;62.72;;
64996;Laerm;51545;51.568;6.998;2023-07-31T08:41:39;48.16;44.94;60.87;;
64996;Laerm;51545;51.568;6.998;2023-07-31T08:44:06;48.88;44.48;57.49;;
64996;Laerm;51545;51.568;6.998;2023-07-31T08:46:33;49.86;46.22;60.25;;
64996;Laerm;51545;51.568;6.998;2023-07-31T08:49:00;48.88;45.13;57.58;;
64996;Laerm;51545;51.568;6.998;2023-07-31T08:51:26;48.56;45.34;57.14;;
64996;Laerm;51545;51.568;6.998;2023-07-31T08:53:53;48.23;44.38;54.19;;
64996;Laerm;51545;51.568;6.998;2023-07-31T08:56:18;50.41;44.88;61.96;;
64996;Laerm;51545;51.568;6.998;2023-07-31T08:58:45;48.62;45.65;52.06;;
64996;Laerm;51545;51.568;6.998;2023-07-31T09:01:12;49.19;45.23;61.84;;
64996;Laerm;51545;51.568;6.998;2023-07-31T09:03:38;47.87;43.99;54.94;;
64996;Laerm;51545;51.568;6.998;2023-07-31T09:06:05;49.19;44.78;55.73;;
64996;Laerm;51545;51.568;6.998;2023-07-31T09:08:31;52.79;47.82;65.20;;
64996;Laerm;51545;51.568;6.998;2023-07-31T09:11:02;52.22;48.21;72.61;;
64996;Laerm;51545;51.568;6.998;2023-07-31T09:13:31;51.05;46.44;62.91;;
64996;Laerm;51545;51.568;6.998;2023-07-31T09:15:57;49.92;46.51;61.62;;
64996;Laerm;51545;51.568;6.998;2023-07-31T09:18:22;49.52;44.95;57.31;;
64996;Laerm;51545;51.568;6.998;2023-07-31T09:21:06;48.52;44.05;70.29;;
64996;Laerm;51545;51.568;6.998;2023-07-31T09:23:45;47.97;44.74;59.91;;
64996;Laerm;51545;51.568;6.998;2023-07-31T09:26:11;47.92;44.86;58.91;;
64996;Laerm;51545;51.568;6.998;2023-07-31T09:28:53;49.62;45.99;60.27;;
64996;Laerm;51545;51.568;6.998;2023-07-31T09:31:40;49.02;44.66;61.20;;
64996;Laerm;51545;51.568;6.998;2023-07-31T09:34:06;47.85;44.11;56.90;;
64996;Laerm;51545;51.568;6.998;2023-07-31T09:36:32;48.09;44.70;55.82;;
64996;Laerm;51545;51.568;6.998;2023-07-31T09:39:09;47.94;44.36;58.03;;
64996;Laerm;51545;51.568;6.998;2023-07-31T09:41:53;48.11;43.79;55.75;;
64996;Laerm;51545;51.568;6.998;2023-07-31T09:44:18;49.21;44.45;64.17;;
64996;Laerm;51545;51.568;6.998;2023-07-31T09:46:45;47.45;44.12;53.84;;
64996;Laerm;51545;51.568;6.998;2023-07-31T09:49:12;47.32;43.59;53.03;;
64996;Laerm;51545;51.568;6.998;2023-07-31T09:51:38;47.89;44.06;60.62;;
64996;Laerm;51545;51.568;6.998;2023-07-31T09:54:15;47.60;44.25;61.06;;
64996;Laerm;51545;51.568;6.998;2023-07-31T09:56:45;48.64;43.30;62.17;;
64996;Laerm;51545;51.568;6.998;2023-07-31T09:59:13;48.25;43.69;62.83;;
64996;Laerm;51545;51.568;6.998;2023-07-31T10:01:41;48.37;43.69;57.32;;
64996;Laerm;51545;51.568;6.998;2023-07-31T10:04:08;47.27;43.94;52.49;;
64996;Laerm;51545;51.568;6.998;2023-07-31T10:06:35;48.64;44.48;60.00;;
64996;Laerm;51545;51.568;6.998;2023-07-31T10:09:08;47.15;44.02;51.79;;
64996;Laerm;51545;51.568;6.998;2023-07-31T10:11:38;48.69;45.41;56.38;;
64996;Laerm;51545;51.568;6.998;2023-07-31T10:14:07;47.40;44.00;58.03;;
64996;Laerm;51545;51.568;6.998;2023-07-31T10:16:34;48.16;44.47;61.78;;
64996;Laerm;51545;51.568;6.998;2023-07-31T10:19:01;48.48;44.19;60.84;;
64996;Laerm;51545;51.568;6.998;2023-07-31T10:21:27;49.90;44.77;59.78;;
64996;Laerm;51545;51.568;6.998;2023-07-31T10:23:53;48.40;45.01;56.51;;
64996;Laerm;51545;51.568;6.998;2023-07-31T10:26:23;49.07;44.82;61.04;;
64996;Laerm;51545;51.568;6.998;2023-07-31T10:28:51;48.94;44.36;56.88;;
64996;Laerm;51545;51.568;6.998;2023-07-31T10:31:18;48.14;43.81;61.43;;
64996;Laerm;51545;51.568;6.998;2023-07-31T10:33:44;48.27;44.60;56.20;;
64996;Laerm;51545;51.568;6.998;2023-07-31T10:36:17;48.87;44.55;63.99;;
64996;Laerm;51545;51.568;6.998;2023-07-31T10:38:43;49.00;45.13;62.56;;
64996;Laerm;51545;51.568;6.998;2023-07-31T10:41:09;48.21;45.09;54.17;;
64996;Laerm;51545;51.568;6.998;2023-07-31T10:43:36;48.28;44.54;56.60;;
64996;Laerm;51545;51.568;6.998;2023-07-31T10:46:07;50.71;45.67;66.73;;
64996;Laerm;51545;51.568;6.998;2023-07-31T10:48:34;48.71;43.94;54.20;;
64996;Laerm;51545;51.568;6.998;2023-07-31T10:51:07;48.04;44.68;52.50;;
64996;Laerm;51545;51.568;6.998;2023-07-31T10:53:33;48.13;44.19;55.42;;
64996;Laerm;51545;51.568;6.998;2023-07-31T10:56:03;47.74;43.82;55.95;;
64996;Laerm;51545;51.568;6.998;2023-07-31T10:58:29;47.72;44.18;55.22;;
64996;Laerm;51545;51.568;6.998;2023-07-31T11:01:01;47.53;44.57;56.65;;
64996;Laerm;51545;51.568;6.998;2023-07-31T11:03:48;47.71;43.95;58.44;;
64996;Laerm;51545;51.568;6.998;2023-07-31T11:06:17;49.79;45.24;61.32;;
64996;Laerm;51545;51.568;6.998;2023-07-31T11:08:47;48.03;44.47;61.93;;
64996;Laerm;51545;51.568;6.998;2023-07-31T11:11:18;46.65;43.49;60.65;;
64996;Laerm;51545;51.568;6.998;2023-07-31T11:13:51;48.04;43.85;53.23;;
64996;Laerm;51545;51.568;6.998;2023-07-31T11:16:19;47.65;44.37;56.38;;
64996;Laerm;51545;51.568;6.998;2023-07-31T11:18:47;48.03;44.80;54.40;;
64996;Laerm;51545;51.568;6.998;2023-07-31T11:21:24;47.06;43.46;51.43;;
64996;Laerm;51545;51.568;6.998;2023-07-31T11:23:56;48.25;43.90;74.88;;
64996;Laerm;51545;51.568;6.998;2023-07-31T11:26:23;47.65;43.78;64.39;;
64996;Laerm;51545;51.568;6.998;2023-07-31T11:28:50;47.93;43.70;66.89;;
64996;Laerm;51545;51.568;6.998;2023-07-31T11:31:17;47.73;43.72;59.37;;
64996;Laerm;51545;51.568;6.998;2023-07-31T11:33:43;47.05;43.86;52.96;;
64996;Laerm;51545;51.568;6.998;2023-07-31T11:36:17;48.14;44.98;57.69;;
64996;Laerm;51545;51.568;6.998;2023-07-31T11:38:42;47.37;44.11;54.58;;
64996;Laerm;51545;51.568;6.998;2023-07-31T11:41:08;46.65;43.44;60.29;;
64996;Laerm;51545;51.568;6.998;2023-07-31T11:43:34;48.52;43.89;62.60;;
64996;Laerm;51545;51.568;6.998;2023-07-31T11:46:02;46.96;43.25;53.66;;
64996;Laerm;51545;51.568;6.998;2023-07-31T11:48:37;47.32;43.32;56.78;;
64996;Laerm;51545;51.568;6.998;2023-07-31T11:51:08;47.24;43.07;60.22;;
64996;Laerm;51545;51.568;6.998;2023-07-31T11:53:46;47.29;43.69;51.47;;
64996;Laerm;51545;51.568;6.998;2023-07-31T11:56:20;47.12;43.42;54.90;;
64996;Laerm;51545;51.568;6.998;2023-07-31T11:58:47;48.09;43.68;59.66;;
64996;Laerm;51545;51.568;6.998;2023-07-31T12:01:18;47.49;43.69;56.18;;
64996;Laerm;51545;51.568;6.998;2023-07-31T12:03:45;46.64;43.73;52.89;;
64996;Laerm;51545;51.568;6.998;2023-07-31T12:06:11;47.36;44.36;53.33;;
64996;Laerm;51545;51.568;6.998;2023-07-31T12:08:37;47.96;44.27;56.26;;
64996;Laerm;51545;51.568;6.998;2023-07-31T12:11:04;48.27;43.67;61.58;;
64996;Laerm;51545;51.568;6.998;2023-07-31T12:13:31;47.67;44.02;52.39;;
64996;Laerm;51545;51.568;6.998;2023-07-31T12:16:02;48.77;44.04;61.52;;
64996;Laerm;51545;51.568;6.998;2023-07-31T12:18:33;47.49;44.19;55.68;;
64996;Laerm;51545;51.568;6.998;2023-07-31T12:21:01;48.21;44.61;56.43;;
64996;Laerm;51545;51.568;6.998;2023-07-31T12:23:31;55.06;43.65;71.59;;
64996;Laerm;51545;51.568;6.998;2023-07-31T12:26:14;48.20;43.51;60.22;;
64996;Laerm;51545;51.568;6.998;2023-07-31T12:31:10;50.21;44.83;64.84;;
64996;Laerm;51545;51.568;6.998;2023-07-31T12:33:37;47.98;43.54;61.43;;
64996;Laerm;51545;51.568;6.998;2023-07-31T12:36:09;48.40;44.65;63.98;;
64996;Laerm;51545;51.568;6.998;2023-07-31T12:38:35;47.11;43.84;53.34;;
64996;Laerm;51545;51.568;6.998;2023-07-31T12:41:01;47.23;43.46;52.75;;
64996;Laerm;51545;51.568;6.998;2023-07-31T12:43:26;47.88;44.04;56.62;;
64996;Laerm;51545;51.568;6.998;2023-07-31T12:45:54;48.30;43.61;58.26;;
64996;Laerm;51545;51.568;6.998;2023-07-31T12:48:21;46.52;42.30;55.56;;
64996;Laerm;51545;51.568;6.998;2023-07-31T12:50:46;47.17;43.07;57.79;;
64996;Laerm;51545;51.568;6.998;2023-07-31T12:53:12;48.03;43.96;56.30;;
64996;Laerm;51545;51.568;6.998;2023-07-31T12:55:37;47.17;43.14;59.18;;
64996;Laerm;51545;51.568;6.998;2023-07-31T12:58:03;48.16;43.77;61.14;;
64996;Laerm;51545;51.568;6.998;2023-07-31T13:00:29;47.49;43.84;65.42;;
64996;Laerm;51545;51.568;6.998;2023-07-31T13:02:55;47.94;44.08;55.64;;
64996;Laerm;51545;51.568;6.998;2023-07-31T13:05:20;50.21;44.95;61.05;;
64996;Laerm;51545;51.568;6.998;2023-07-31T13:07:47;50.17;45.60;55.89;;
64996;Laerm;51545;51.568;6.998;2023-07-31T13:10:13;50.21;45.57;63.76;;
64996;Laerm;51545;51.568;6.998;2023-07-31T13:12:38;49.79;45.22;59.60;;
64996;Laerm;51545;51.568;6.998;2023-07-31T13:15:05;48.95;45.17;57.00;;
64996;Laerm;51545;51.568;6.998;2023-07-31T13:17:31;47.06;43.89;52.01;;
64996;Laerm;51545;51.568;6.998;2023-07-31T13:19:56;48.01;43.97;55.33;;
64996;Laerm;51545;51.568;6.998;2023-07-31T13:22:22;47.13;43.28;52.46;;
64996;Laerm;51545;51.568;6.998;2023-07-31T13:24:48;47.38;43.99;59.03;;
64996;Laerm;51545;51.568;6.998;2023-07-31T13:27:13;46.73;42.71;54.98;;
64996;Laerm;51545;51.568;6.998;2023-07-31T13:29:43;46.40;42.89;50.76;;
64996;Laerm;51545;51.568;6.998;2023-07-31T13:32:09;46.93;43.43;54.29;;
64996;Laerm;51545;51.568;6.998;2023-07-31T13:34:34;47.95;43.38;55.96;;
64996;Laerm;51545;51.568;6.998;2023-07-31T13:36:59;47.42;43.96;58.38;;
64996;Laerm;51545;51.568;6.998;2023-07-31T13:39:25;47.53;42.81;53.67;;
64996;Laerm;51545;51.568;6.998;2023-07-31T13:41:50;46.76;43.59;53.90;;
64996;Laerm;51545;51.568;6.998;2023-07-31T13:44:16;46.87;43.09;58.78;;
64996;Laerm;51545;51.568;6.998;2023-07-31T13:46:41;47.26;43.75;55.15;;
64996;Laerm;51545;51.568;6.998;2023-07-31T13:49:11;46.93;43.24;53.61;;